createdAt,value
2023-07-04T00:01:24.411Z,15.76
2023-07-04T00:03:56.186Z,15.78
2023-07-04T00:06:26.837Z,15.79
2023-07-04T00:08:53.483Z,15.79
2023-07-04T00:11:20.704Z,15.80
2023-07-04T00:13:50.931Z,15.78
2023-07-04T00:16:17.843Z,15.77
2023-07-04T00:18:45.571Z,15.77
2023-07-04T00:21:13.996Z,15.77
2023-07-04T00:23:43.627Z,15.77
2023-07-04T00:26:10.227Z,15.76
2023-07-04T00:28:40.044Z,15.74
2023-07-04T00:31:08.637Z,15.72
2023-07-04T00:33:35.684Z,15.70
2023-07-04T00:36:08.559Z,15.69
2023-07-04T00:38:36.650Z,15.66
2023-07-04T00:41:09.193Z,15.63
2023-07-04T00:43:46.617Z,15.62
2023-07-04T00:46:16.922Z,15.60
2023-07-04T00:48:46.995Z,15.59
2023-07-04T00:51:23.217Z,15.58
2023-07-04T00:53:54.680Z,15.58
2023-07-04T00:56:27.126Z,15.57
2023-07-04T00:59:00.609Z,15.55
2023-07-04T01:01:28.399Z,15.55
2023-07-04T01:03:58.287Z,15.55
2023-07-04T01:06:32.071Z,15.55
2023-07-04T01:09:03.011Z,15.55
2023-07-04T01:11:34.464Z,15.54
2023-07-04T01:14:04.486Z,15.55
2023-07-04T01:16:32.737Z,15.55
2023-07-04T01:18:59.729Z,15.56
2023-07-04T01:21:28.519Z,15.57
2023-07-04T01:24:00.197Z,15.57
2023-07-04T01:26:35.932Z,15.59
2023-07-04T01:29:06.160Z,15.59
2023-07-04T01:31:33.203Z,15.59
2023-07-04T01:33:59.993Z,15.60
2023-07-04T01:36:31.430Z,15.60
2023-07-04T01:38:58.172Z,15.61
2023-07-04T01:41:27.630Z,15.61
2023-07-04T01:43:59.597Z,15.60
2023-07-04T01:46:26.403Z,15.60
2023-07-04T01:48:53.414Z,15.59
2023-07-04T01:51:38.256Z,15.58
2023-07-04T01:54:06.747Z,15.58
2023-07-04T01:56:34.936Z,15.59
2023-07-04T01:59:02.593Z,15.59
2023-07-04T02:01:29.508Z,15.59
2023-07-04T02:03:56.165Z,15.57
2023-07-04T02:06:22.907Z,15.55
2023-07-04T02:08:49.492Z,15.55
2023-07-04T02:11:16.049Z,15.54
2023-07-04T02:13:42.705Z,15.53
2023-07-04T02:16:09.376Z,15.52
2023-07-04T02:18:36.183Z,15.51
2023-07-04T02:21:02.849Z,15.50
2023-07-04T02:23:29.377Z,15.49
2023-07-04T02:25:56.215Z,15.47
2023-07-04T02:28:23.016Z,15.45
2023-07-04T02:30:57.377Z,15.45
2023-07-04T02:33:24.980Z,15.44
2023-07-04T02:35:51.963Z,15.46
2023-07-04T02:38:19.431Z,15.46
2023-07-04T02:40:47.841Z,15.46
2023-07-04T02:43:15.257Z,15.47
2023-07-04T02:45:42.259Z,15.48
2023-07-04T02:48:08.880Z,15.49
2023-07-04T02:50:35.443Z,15.50
2023-07-04T02:53:02.522Z,15.51
2023-07-04T02:55:29.261Z,15.52
2023-07-04T02:57:56.122Z,15.54
2023-07-04T03:00:23.793Z,15.54
2023-07-04T03:02:50.842Z,15.55
2023-07-04T03:05:17.537Z,15.55
2023-07-04T03:07:44.103Z,15.57
2023-07-04T03:10:10.914Z,15.57
2023-07-04T03:12:37.560Z,15.55
2023-07-04T03:15:04.741Z,15.54
2023-07-04T03:17:31.334Z,15.55
2023-07-04T03:19:57.914Z,15.55
2023-07-04T03:22:24.484Z,15.54
2023-07-04T03:24:51.057Z,15.53
2023-07-04T03:27:17.594Z,15.53
2023-07-04T03:29:44.147Z,15.51
2023-07-04T03:32:10.706Z,15.53
2023-07-04T03:34:37.273Z,15.52
2023-07-04T03:37:04.113Z,15.50
2023-07-04T03:39:30.765Z,15.49
2023-07-04T03:41:57.280Z,15.45
2023-07-04T03:44:23.812Z,15.42
2023-07-04T03:46:50.397Z,15.40
2023-07-04T03:49:16.973Z,15.37
2023-07-04T03:51:45.192Z,15.35
2023-07-04T03:54:13.869Z,15.33
2023-07-04T03:56:40.402Z,15.30
2023-07-04T03:59:06.971Z,15.28
2023-07-04T04:01:33.507Z,15.26
2023-07-04T04:04:00.234Z,15.24
2023-07-04T04:06:26.908Z,15.22
2023-07-04T04:08:53.667Z,15.20
2023-07-04T04:11:20.304Z,15.19
2023-07-04T04:13:47.133Z,15.20
2023-07-04T04:16:13.725Z,15.20
2023-07-04T04:18:40.480Z,15.21
2023-07-04T04:21:08.785Z,15.24
2023-07-04T04:23:35.376Z,15.26
2023-07-04T04:26:02.390Z,15.30
2023-07-04T04:28:29.049Z,15.34
2023-07-04T04:30:56.025Z,15.37
2023-07-04T04:33:22.868Z,15.39
2023-07-04T04:35:49.423Z,15.43
2023-07-04T04:38:16.961Z,15.46
2023-07-04T04:40:44.191Z,15.49
2023-07-04T04:43:11.166Z,15.50
2023-07-04T04:45:39.782Z,15.51
2023-07-04T04:48:07.510Z,15.54
2023-07-04T04:50:34.247Z,15.58
2023-07-04T04:53:01.349Z,15.63
2023-07-04T04:55:28.491Z,15.69
2023-07-04T04:57:55.238Z,15.75
2023-07-04T05:00:22.105Z,15.82
2023-07-04T05:02:48.835Z,15.90
2023-07-04T05:05:16.846Z,15.98
2023-07-04T05:07:43.424Z,16.05
2023-07-04T05:10:10.319Z,16.14
2023-07-04T05:12:36.882Z,16.22
2023-07-04T05:15:06.343Z,16.32
2023-07-04T05:17:33.429Z,16.41
2023-07-04T05:20:01.685Z,16.50
2023-07-04T05:22:28.441Z,16.61
2023-07-04T05:24:56.453Z,16.66
2023-07-04T05:27:23.008Z,16.73
2023-07-04T05:29:49.689Z,16.79
2023-07-04T05:32:16.363Z,16.87
2023-07-04T05:34:47.379Z,16.95
2023-07-04T05:37:13.946Z,17.08
2023-07-04T05:39:40.504Z,17.21
2023-07-04T05:42:07.268Z,17.36
2023-07-04T05:44:33.924Z,17.53
2023-07-04T05:47:00.659Z,17.65
2023-07-04T05:49:27.184Z,17.75
2023-07-04T05:51:54.201Z,17.84
2023-07-04T05:54:20.858Z,17.90
2023-07-04T05:56:52.697Z,17.96
2023-07-04T05:59:19.241Z,18.01
2023-07-04T06:01:47.139Z,18.03
2023-07-04T06:04:15.128Z,18.05
2023-07-04T06:06:44.532Z,18.04
2023-07-04T06:09:14.205Z,18.03
2023-07-04T06:11:46.637Z,18.01
2023-07-04T06:14:18.530Z,18.00
2023-07-04T06:16:45.318Z,17.96
2023-07-04T06:19:11.928Z,17.91
2023-07-04T06:21:43.905Z,17.84
2023-07-04T06:24:12.334Z,17.80
2023-07-04T06:26:38.948Z,17.76
2023-07-04T06:29:05.548Z,17.72
2023-07-04T06:31:32.337Z,17.70
2023-07-04T06:33:59.057Z,17.73
2023-07-04T06:36:25.896Z,17.79
2023-07-04T06:38:53.211Z,17.83
2023-07-04T06:41:20.527Z,17.90
2023-07-04T06:43:48.350Z,17.95
2023-07-04T06:46:18.439Z,17.96
2023-07-04T06:48:48.285Z,17.98
2023-07-04T06:51:16.640Z,18.04
2023-07-04T06:53:43.804Z,18.16
2023-07-04T06:56:28.433Z,18.28
2023-07-04T06:58:56.156Z,18.40
2023-07-04T07:01:28.430Z,18.50
2023-07-04T07:03:56.518Z,18.60
2023-07-04T07:06:23.546Z,18.73
2023-07-04T07:08:50.186Z,18.82
2023-07-04T07:11:18.867Z,18.92
2023-07-04T07:13:47.870Z,19.01
2023-07-04T07:16:26.129Z,19.12
2023-07-04T07:18:54.512Z,19.21
2023-07-04T07:21:26.795Z,19.28
2023-07-04T07:23:57.800Z,19.32
2023-07-04T07:26:27.235Z,19.41
2023-07-04T07:28:55.418Z,19.50
2023-07-04T07:33:54.385Z,19.66
2023-07-04T07:36:31.927Z,19.73
2023-07-04T07:39:00.211Z,19.80
2023-07-04T07:41:29.643Z,19.87
2023-07-04T07:43:56.280Z,19.92
2023-07-04T07:46:23.238Z,19.95
2023-07-04T07:48:50.625Z,20.04
2023-07-04T07:51:18.104Z,20.09
2023-07-04T07:53:46.943Z,20.14
2023-07-04T07:56:15.361Z,20.19
2023-07-04T07:58:41.978Z,20.28
2023-07-04T08:01:23.792Z,20.37
2023-07-04T08:03:51.081Z,20.43
2023-07-04T08:06:44.691Z,20.53
2023-07-04T08:09:12.525Z,20.59
2023-07-04T08:11:40.672Z,20.69
2023-07-04T08:14:07.930Z,20.76
2023-07-04T08:16:49.393Z,20.82
2023-07-04T08:19:18.440Z,20.89
2023-07-04T08:21:46.493Z,20.98
2023-07-04T08:24:15.039Z,21.08
2023-07-04T08:26:45.783Z,21.16
2023-07-04T08:29:13.320Z,21.23
2023-07-04T08:31:39.967Z,21.29
2023-07-04T08:34:06.679Z,21.35
2023-07-04T08:36:34.175Z,21.43
2023-07-04T08:39:00.800Z,21.49
2023-07-04T08:41:49.381Z,21.52
2023-07-04T08:44:22.003Z,21.55
2023-07-04T08:46:55.305Z,21.64
2023-07-04T08:49:47.549Z,21.75
2023-07-04T08:52:25.907Z,21.79
2023-07-04T08:54:54.447Z,21.81
2023-07-04T08:57:44.082Z,21.79
2023-07-04T09:00:16.085Z,21.80
2023-07-04T09:03:06.475Z,21.90
2023-07-04T09:05:49.568Z,22.01
2023-07-04T09:08:22.077Z,22.10
2023-07-04T09:10:52.564Z,22.17
2023-07-04T09:13:45.226Z,22.25
2023-07-04T09:16:19.073Z,22.32
2023-07-04T09:18:59.997Z,22.38
2023-07-04T09:21:27.416Z,22.50
2023-07-04T09:23:56.794Z,22.65
2023-07-04T09:26:26.578Z,22.80
2023-07-04T09:28:55.340Z,22.94
2023-07-04T09:31:33.015Z,23.12
2023-07-04T09:34:04.434Z,23.34
2023-07-04T09:36:38.346Z,23.57
2023-07-04T09:39:05.964Z,23.68
2023-07-04T09:41:54.895Z,23.74
2023-07-04T09:44:31.461Z,23.79
2023-07-04T09:47:01.036Z,23.80
2023-07-04T09:49:30.639Z,23.86
2023-07-04T09:52:17.431Z,23.94
2023-07-04T09:54:45.037Z,24.00
2023-07-04T09:57:31.345Z,24.06
2023-07-04T10:00:17.647Z,24.05
2023-07-04T10:02:45.007Z,23.99
2023-07-04T10:05:27.147Z,23.90
2023-07-04T10:08:19.973Z,23.68
2023-07-04T10:10:54.844Z,23.47
2023-07-04T10:13:25.230Z,23.30
2023-07-04T10:15:52.727Z,23.16
2023-07-04T10:18:31.901Z,23.02
2023-07-04T10:21:00.744Z,22.88
2023-07-04T10:23:29.717Z,22.81
2023-07-04T10:25:59.215Z,22.84
2023-07-04T10:28:28.695Z,22.94
2023-07-04T10:31:16.108Z,23.00
2023-07-04T10:33:54.012Z,23.05
2023-07-04T10:36:30.351Z,23.13
2023-07-04T10:39:01.263Z,23.20
2023-07-04T10:41:48.100Z,23.31
2023-07-04T10:44:21.858Z,23.40
2023-07-04T10:46:54.678Z,23.50
2023-07-04T10:49:25.159Z,23.61
2023-07-04T10:51:57.284Z,23.60
2023-07-04T10:54:24.024Z,23.59
2023-07-04T10:56:56.420Z,23.56
2023-07-04T10:59:31.214Z,23.51
2023-07-04T11:02:25.778Z,23.45
2023-07-04T11:05:00.554Z,23.43
2023-07-04T11:07:28.421Z,23.42
2023-07-04T11:09:58.592Z,23.43
2023-07-04T11:12:29.402Z,23.43
2023-07-04T11:15:17.398Z,23.45
2023-07-04T11:17:45.720Z,23.44
2023-07-04T11:20:18.381Z,23.41
2023-07-04T11:23:02.901Z,23.39
2023-07-04T11:25:43.246Z,23.35
2023-07-04T11:28:23.104Z,23.29
2023-07-04T11:30:51.483Z,23.26
2023-07-04T11:33:41.694Z,23.25
2023-07-04T11:36:31.640Z,23.22
2023-07-04T11:39:00.805Z,23.29
2023-07-04T11:41:31.797Z,23.39
2023-07-04T11:43:59.581Z,23.46
2023-07-04T11:46:29.424Z,23.48
2023-07-04T11:48:58.404Z,23.51
2023-07-04T11:51:29.688Z,23.56
2023-07-04T11:53:59.655Z,23.61
2023-07-04T11:56:28.059Z,23.69
2023-07-04T11:59:12.684Z,23.79
2023-07-04T12:01:58.411Z,23.89
2023-07-04T12:04:45.478Z,23.99
2023-07-04T12:07:30.404Z,24.11
2023-07-04T12:10:20.245Z,24.17
2023-07-04T12:12:49.415Z,24.22
2023-07-04T12:15:26.148Z,24.30
2023-07-04T12:17:56.012Z,24.43
2023-07-04T12:20:22.647Z,24.55
2023-07-04T12:22:53.329Z,24.68
2023-07-04T12:25:25.574Z,24.80
2023-07-04T12:27:59.615Z,24.92
2023-07-04T12:33:07.484Z,25.04
2023-07-04T12:35:39.675Z,25.09
2023-07-04T12:38:08.201Z,25.13
2023-07-04T12:40:35.347Z,25.15
2023-07-04T12:45:34.446Z,25.23
2023-07-04T12:50:35.924Z,25.38
2023-07-04T12:53:03.567Z,25.49
2023-07-04T12:55:33.594Z,25.56
2023-07-04T12:58:01.816Z,25.58
2023-07-04T13:01:04.151Z,25.60
2023-07-04T13:03:31.429Z,25.60
2023-07-04T13:05:58.489Z,25.63
2023-07-04T13:08:28.204Z,25.65
2023-07-04T13:10:56.905Z,25.65
2023-07-04T13:13:39.419Z,25.66
2023-07-04T13:16:31.600Z,25.65
2023-07-04T13:19:19.681Z,25.69
2023-07-04T13:21:51.429Z,25.76
2023-07-04T13:27:12.633Z,25.93
2023-07-04T13:34:55.762Z,25.85
2023-07-04T13:37:24.917Z,25.74
2023-07-04T13:39:55.361Z,25.60
2023-07-04T13:42:22.654Z,25.42
2023-07-04T13:47:19.226Z,25.02
2023-07-04T13:49:45.982Z,24.85
2023-07-04T13:52:12.720Z,24.74
2023-07-04T13:54:39.502Z,24.72
2023-07-04T13:57:06.494Z,24.71
2023-07-04T13:59:33.065Z,24.68
2023-07-04T14:06:59.401Z,24.65
2023-07-04T14:09:26.043Z,24.70
2023-07-04T14:11:59.420Z,24.77
2023-07-04T14:17:32.359Z,24.97
2023-07-04T14:22:13.614Z,25.27
2023-07-04T14:24:40.200Z,25.30
2023-07-04T14:27:06.776Z,25.30
2023-07-04T14:29:33.390Z,25.30
2023-07-04T14:31:59.989Z,25.22
2023-07-04T14:34:28.192Z,25.10
2023-07-04T14:36:54.823Z,25.01
2023-07-04T14:39:21.799Z,24.93
2023-07-04T14:42:30.020Z,24.93
2023-07-04T14:44:35.241Z,24.99
2023-07-04T14:47:02.089Z,25.01
2023-07-04T14:49:28.784Z,25.05
2023-07-04T14:51:55.312Z,25.09
2023-07-04T14:54:22.597Z,25.08
2023-07-04T14:56:51.422Z,24.92
2023-07-04T14:59:18.596Z,24.70
2023-07-04T15:01:45.169Z,24.52
2023-07-04T15:04:11.697Z,24.39
2023-07-04T15:06:38.234Z,24.35
2023-07-04T15:09:06.420Z,24.39
2023-07-04T15:11:33.395Z,24.40
2023-07-04T15:14:00.709Z,24.34
2023-07-04T15:16:27.471Z,24.29
2023-07-04T15:18:54.113Z,24.27
2023-07-04T15:21:20.666Z,24.24
2023-07-04T15:23:47.233Z,24.19
2023-07-04T15:26:26.009Z,24.07
2023-07-04T15:28:54.093Z,23.92
2023-07-04T15:31:21.041Z,23.79
2023-07-04T15:33:49.826Z,23.68
2023-07-04T15:36:16.581Z,23.58
2023-07-04T15:38:43.143Z,23.51
2023-07-04T15:41:10.946Z,23.51
2023-07-04T15:43:39.079Z,23.62
2023-07-04T15:46:08.469Z,23.84
2023-07-04T15:48:36.181Z,24.09
2023-07-04T15:51:03.583Z,24.23
2023-07-04T15:53:30.173Z,24.35
2023-07-04T15:56:02.116Z,24.44
2023-07-04T15:58:29.829Z,24.40
2023-07-04T16:00:58.223Z,24.31
2023-07-04T16:03:26.157Z,24.24
2023-07-04T16:05:57.766Z,24.32
2023-07-04T16:08:26.087Z,24.47
2023-07-04T16:10:57.646Z,24.56
2023-07-04T16:13:24.610Z,24.60
2023-07-04T16:15:51.551Z,24.62
2023-07-04T16:18:18.545Z,24.68
2023-07-04T16:20:46.015Z,24.68
2023-07-04T16:23:12.820Z,24.64
2023-07-04T16:25:43.301Z,24.56
2023-07-04T16:28:10.855Z,24.39
2023-07-04T16:30:38.075Z,24.14
2023-07-04T16:33:04.696Z,23.91
2023-07-04T16:35:31.312Z,23.70
2023-07-04T16:37:57.844Z,23.51
2023-07-04T16:40:24.494Z,23.33
2023-07-04T16:42:52.856Z,23.15
2023-07-04T16:45:20.206Z,22.97
2023-07-04T16:47:46.860Z,22.81
2023-07-04T16:50:29.823Z,22.67
2023-07-04T16:52:58.044Z,22.50
2023-07-04T16:55:25.400Z,22.37
2023-07-04T16:57:52.371Z,22.23
2023-07-04T17:00:19.344Z,22.11
2023-07-04T17:02:46.096Z,22.00
2023-07-04T17:05:12.843Z,21.88
2023-07-04T17:07:39.446Z,21.77
2023-07-04T17:10:06.784Z,21.68
2023-07-04T17:12:33.337Z,21.57
2023-07-04T17:14:59.955Z,21.49
2023-07-04T17:17:26.916Z,21.42
2023-07-04T17:19:53.910Z,21.36
2023-07-04T17:22:20.530Z,21.30
2023-07-04T17:24:53.477Z,21.28
2023-07-04T17:27:25.976Z,21.36
2023-07-04T17:29:52.541Z,21.42
2023-07-04T17:32:19.114Z,21.43
2023-07-04T17:34:45.692Z,21.36
2023-07-04T17:37:12.692Z,21.25
2023-07-04T17:39:39.522Z,21.21
2023-07-04T17:42:06.486Z,21.21
2023-07-04T17:44:33.697Z,21.24
2023-07-04T17:47:00.930Z,21.20
2023-07-04T17:49:28.708Z,21.14
2023-07-04T17:51:56.437Z,21.04
2023-07-04T17:54:23.025Z,20.86
2023-07-04T17:56:50.460Z,20.82
2023-07-04T17:59:17.031Z,20.71
2023-07-04T18:01:44.267Z,20.59
2023-07-04T18:04:11.482Z,20.49
2023-07-04T18:06:40.045Z,20.37
2023-07-04T18:09:07.580Z,20.27
2023-07-04T18:11:34.344Z,20.16
2023-07-04T18:14:01.014Z,20.07
2023-07-04T18:16:28.293Z,19.96
2023-07-04T18:18:55.013Z,19.86
2023-07-04T18:21:23.864Z,19.79
2023-07-04T18:23:52.742Z,19.72
2023-07-04T18:26:21.846Z,19.62
2023-07-04T18:28:50.475Z,19.55
2023-07-04T18:31:19.803Z,19.47
2023-07-04T18:33:47.396Z,19.37
2023-07-04T18:36:22.646Z,19.27
2023-07-04T18:38:50.074Z,19.17
2023-07-04T18:41:20.322Z,19.08
2023-07-04T18:43:47.069Z,18.98
2023-07-04T18:46:23.462Z,18.88
2023-07-04T18:48:50.342Z,18.78
2023-07-04T18:51:22.375Z,18.68
2023-07-04T18:53:49.812Z,18.59
2023-07-04T18:56:16.601Z,18.52
2023-07-04T18:58:44.679Z,18.45
2023-07-04T19:01:15.264Z,18.39
2023-07-04T19:03:43.680Z,18.31
2023-07-04T19:06:15.294Z,18.24
2023-07-04T19:08:47.257Z,18.17
2023-07-04T19:11:19.198Z,18.09
2023-07-04T19:14:07.485Z,18.00
2023-07-04T19:16:39.598Z,17.93
2023-07-04T19:19:09.322Z,17.85
2023-07-04T19:21:37.532Z,17.81
2023-07-04T19:24:04.993Z,17.75
2023-07-04T19:26:31.641Z,17.70
2023-07-04T19:28:58.484Z,17.68
2023-07-04T19:31:25.098Z,17.63
2023-07-04T19:33:51.802Z,17.59
2023-07-04T19:36:18.690Z,17.57
2023-07-04T19:38:45.266Z,17.52
2023-07-04T19:41:11.940Z,17.46
2023-07-04T19:43:39.012Z,17.40
2023-07-04T19:46:07.833Z,17.36
2023-07-04T19:48:37.362Z,17.31
2023-07-04T19:51:08.325Z,17.26
2023-07-04T19:53:37.173Z,17.23
2023-07-04T19:56:12.950Z,17.20
2023-07-04T19:58:39.955Z,17.16
2023-07-04T20:01:12.052Z,17.13
2023-07-04T20:03:39.600Z,17.10
2023-07-04T20:06:08.134Z,17.05
2023-07-04T20:08:35.416Z,17.03
2023-07-04T20:11:03.670Z,16.99
2023-07-04T20:13:31.709Z,16.96
2023-07-04T20:16:01.015Z,16.94
2023-07-04T20:18:27.705Z,16.91
2023-07-04T20:20:58.469Z,16.89
2023-07-04T20:23:25.881Z,16.85
2023-07-04T20:25:54.782Z,16.83
2023-07-04T20:28:23.611Z,16.79
2023-07-04T20:30:56.556Z,16.76
2023-07-04T20:33:24.917Z,16.71
2023-07-04T20:35:51.975Z,16.70
2023-07-04T20:38:19.551Z,16.69
2023-07-04T20:40:47.289Z,16.67
2023-07-04T20:43:15.235Z,16.65
2023-07-04T20:45:42.515Z,16.61
2023-07-04T20:48:10.686Z,16.59
2023-07-04T20:50:38.911Z,16.58
2023-07-04T20:53:06.060Z,16.57
2023-07-04T20:55:39.707Z,16.55
2023-07-04T20:58:10.256Z,16.53
2023-07-04T21:00:38.631Z,16.52
2023-07-04T21:03:07.340Z,16.50
2023-07-04T21:05:34.846Z,16.48
2023-07-04T21:08:01.747Z,16.47
2023-07-04T21:10:28.999Z,16.46
2023-07-04T21:12:59.448Z,16.45
2023-07-04T21:15:28.837Z,16.45
2023-07-04T21:17:57.714Z,16.45
2023-07-04T21:20:25.190Z,16.45
2023-07-04T21:22:51.947Z,16.43
2023-07-04T21:25:18.635Z,16.44
2023-07-04T21:27:45.230Z,16.41
2023-07-04T21:30:12.272Z,16.39
2023-07-04T21:32:39.037Z,16.38
2023-07-04T21:35:06.059Z,16.37
2023-07-04T21:37:32.599Z,16.38
2023-07-04T21:39:59.369Z,16.35
2023-07-04T21:42:25.946Z,16.36
2023-07-04T21:44:54.407Z,16.34
2023-07-04T21:47:20.980Z,16.33
2023-07-04T21:49:49.875Z,16.31
2023-07-04T21:52:16.725Z,16.30
2023-07-04T21:54:45.394Z,16.27
2023-07-04T21:57:12.557Z,16.25
2023-07-04T21:59:39.287Z,16.22
2023-07-04T22:02:06.499Z,16.22
2023-07-04T22:04:33.239Z,16.19
2023-07-04T22:06:59.870Z,16.16
2023-07-04T22:09:27.033Z,16.15
2023-07-04T22:11:53.674Z,16.13
2023-07-04T22:14:35.661Z,16.14
2023-07-04T22:17:05.221Z,16.09
2023-07-04T22:19:32.100Z,16.08
2023-07-04T22:21:58.915Z,16.13
2023-07-04T22:24:27.511Z,16.18
2023-07-04T22:26:54.374Z,16.19
2023-07-04T22:29:21.043Z,16.19
2023-07-04T22:31:47.676Z,16.19
2023-07-04T22:34:14.813Z,16.18
2023-07-04T22:36:41.965Z,16.16
2023-07-04T22:39:09.711Z,16.15
2023-07-04T22:41:36.889Z,16.15
2023-07-04T22:44:03.599Z,16.13
2023-07-04T22:46:30.823Z,16.13
2023-07-04T22:48:58.048Z,16.12
2023-07-04T22:51:24.823Z,16.11
2023-07-04T22:53:52.311Z,16.11
2023-07-04T22:56:19.488Z,16.13
2023-07-04T22:58:46.459Z,16.14
2023-07-04T23:01:19.458Z,16.15
2023-07-04T23:03:48.594Z,16.16
2023-07-04T23:06:16.720Z,16.14
2023-07-04T23:08:44.821Z,16.12
2023-07-04T23:11:12.102Z,16.12
2023-07-04T23:13:39.065Z,16.10
2023-07-04T23:16:10.319Z,16.09
2023-07-04T23:18:38.086Z,16.11
2023-07-04T23:21:05.341Z,16.11
2023-07-04T23:23:32.475Z,16.14
2023-07-04T23:25:59.919Z,16.16
2023-07-04T23:28:26.603Z,16.17
2023-07-04T23:30:53.226Z,16.19
2023-07-04T23:33:19.842Z,16.21
2023-07-04T23:35:56.477Z,16.21
2023-07-04T23:38:23.127Z,16.22
2023-07-04T23:40:49.757Z,16.22
2023-07-04T23:43:16.330Z,16.24
2023-07-04T23:45:43.701Z,16.22
2023-07-04T23:48:10.719Z,16.21
2023-07-04T23:50:37.416Z,16.19
2023-07-04T23:53:04.535Z,16.15
2023-07-04T23:55:32.145Z,16.13
2023-07-04T23:57:58.819Z,16.13
